Main page
METAR-TAF:

METAR-TAF

Airports :

Flugplatz Grafenwöhr

Grafenwöhr, Germany

latitude: 49-42N, longitude: 011-57E, elevation: 415 m

Current weather observation

The report was made 32 minutes ago, at 12:56 UTC
Wind 3 kt from the Northeast
Temperature 22°C
Humidity 21%
Pressure 1020 hPa
Visibility 10 km or more
Clear sky

METAR: ETIC 211256Z AUTO 05003KT 9999 CLR 22/M01 A3011 RMK AO2 SLP197 T02171010 $

Time: 15:28 (13:28 UTC)

Forecast

The report was made 7 hours and 15 minutes ago, at 06:13 UTC
Forecast valid from 21 at 06 UTC to 22 at 12 UTC
Wind 9 kt from the East
Visibility 10 km or more
Clear sky
Becoming
from 22 at 07 UTC to 22 at 08 UTC
Wind 12 kt from the East with gusts up to 20 kt
Visibility 10 km or more
Clear sky

TAF: ETIC 210613Z 2106/2212 08009KT 9999 SKC QNH2995INS BECMG 2207/2208 09012G20KT 9999 SKC QNH2990INS TX23/2114Z TN00/2205Z

Weather observations and forecasts of more than 4000 airports (METAR and TAF reports).

The available stations are represented by yellow and red dots on the map.

Hover mouse over dot to see the name of the station.

Then click to see weather observations and forecasts.

To change the map : click on the green buttons with a black cross to zoom in, on the green button with a dash to zoom out, or on the green arrows for adjacent maps.


METAR-TAF: